createdAt,value
2023-06-30T00:00:49.185Z,28.40
2023-06-30T00:01:49.239Z,30.90
2023-06-30T00:02:49.376Z,31.80
2023-06-30T00:03:49.229Z,31.30
2023-06-30T00:04:49.157Z,28.90
2023-06-30T00:05:49.146Z,32.70
2023-06-30T00:06:49.123Z,31.90
2023-06-30T00:07:49.126Z,28.40
2023-06-30T00:08:49.102Z,31.40
2023-06-30T00:09:49.111Z,29.70
2023-06-30T00:10:49.082Z,27.10
2023-06-30T00:11:49.090Z,27.50
2023-06-30T00:12:49.070Z,25.50
2023-06-30T00:13:49.051Z,23.90
2023-06-30T00:14:49.056Z,24.30
2023-06-30T00:15:49.639Z,25.10
2023-06-30T00:16:49.028Z,23.60
2023-06-30T00:17:49.039Z,25.20
2023-06-30T00:18:49.000Z,21.90
2023-06-30T00:19:48.996Z,24.70
2023-06-30T00:20:48.977Z,17.30
2023-06-30T00:21:48.970Z,16.10
2023-06-30T00:22:48.963Z,14.20
2023-06-30T00:23:48.962Z,13.80
2023-06-30T00:24:48.933Z,13.40
2023-06-30T00:25:48.920Z,13.50
2023-06-30T00:26:48.912Z,12.80
2023-06-30T00:27:48.910Z,10.50
2023-06-30T00:28:48.900Z,9.10
2023-06-30T00:29:48.923Z,9.20
2023-06-30T00:30:48.923Z,10.60
2023-06-30T00:31:48.863Z,9.90
2023-06-30T00:32:48.982Z,11.50
2023-06-30T00:33:48.838Z,9.80
2023-06-30T00:34:48.818Z,8.60
2023-06-30T00:35:48.831Z,8.20
2023-06-30T00:36:48.834Z,8.50
2023-06-30T00:37:48.809Z,8.40
2023-06-30T00:38:48.790Z,8.20
2023-06-30T00:39:48.857Z,7.50
2023-06-30T00:40:48.841Z,7.80
2023-06-30T00:41:48.758Z,6.90
2023-06-30T00:42:48.734Z,6.70
2023-06-30T00:43:48.740Z,6.00
2023-06-30T00:44:48.715Z,6.30
2023-06-30T00:45:48.745Z,7.70
2023-06-30T00:46:48.767Z,6.30
2023-06-30T00:47:48.688Z,5.40
2023-06-30T00:48:48.670Z,6.90
2023-06-30T00:49:48.665Z,5.40
2023-06-30T00:50:48.656Z,8.00
2023-06-30T00:51:48.644Z,7.50
2023-06-30T00:52:48.620Z,5.40
2023-06-30T00:53:48.616Z,5.10
2023-06-30T00:54:48.598Z,4.40
2023-06-30T00:55:48.791Z,7.20
2023-06-30T00:56:48.635Z,6.20
2023-06-30T00:57:48.739Z,4.40
2023-06-30T00:58:48.592Z,5.80
2023-06-30T00:59:48.538Z,5.10
2023-06-30T01:00:48.536Z,8.80
2023-06-30T01:01:48.672Z,7.00
2023-06-30T01:02:49.937Z,4.40
2023-06-30T01:03:48.706Z,5.80
2023-06-30T01:04:48.548Z,5.70
2023-06-30T01:05:48.551Z,4.50
2023-06-30T01:06:48.458Z,3.70
2023-06-30T01:07:48.490Z,3.40
2023-06-30T01:08:48.439Z,4.90
2023-06-30T01:09:48.434Z,4.40
2023-06-30T01:10:48.415Z,4.50
2023-06-30T01:11:48.409Z,6.20
2023-06-30T01:12:48.395Z,4.00
2023-06-30T01:13:48.402Z,4.50
2023-06-30T01:14:48.381Z,4.00
2023-06-30T01:15:48.382Z,3.40
2023-06-30T01:16:48.402Z,4.10
2023-06-30T01:17:48.381Z,3.10
2023-06-30T01:18:48.344Z,3.10
2023-06-30T01:19:48.322Z,2.70
2023-06-30T01:20:48.306Z,3.00
2023-06-30T01:21:48.287Z,2.10
2023-06-30T01:22:48.290Z,2.40
2023-06-30T01:23:48.285Z,2.40
2023-06-30T01:24:48.256Z,2.80
2023-06-30T01:25:48.476Z,1.60
2023-06-30T01:26:48.247Z,2.00
2023-06-30T01:27:48.266Z,2.20
2023-06-30T01:28:48.255Z,1.80
2023-06-30T01:29:48.214Z,1.30
2023-06-30T01:30:48.211Z,1.80
2023-06-30T01:31:48.204Z,1.40
2023-06-30T01:32:48.233Z,1.30
2023-06-30T01:33:48.203Z,1.40
2023-06-30T01:34:48.169Z,1.50
2023-06-30T01:35:48.171Z,1.70
2023-06-30T01:36:48.159Z,2.40
2023-06-30T01:37:48.122Z,3.10
2023-06-30T01:38:48.107Z,2.90
2023-06-30T01:39:48.106Z,3.30
2023-06-30T01:40:48.087Z,3.50
2023-06-30T01:41:48.067Z,3.90
2023-06-30T01:42:48.064Z,3.90
2023-06-30T01:43:48.053Z,4.50
2023-06-30T01:44:48.062Z,5.10
2023-06-30T01:45:48.250Z,4.60
2023-06-30T01:46:48.119Z,5.30
2023-06-30T01:47:48.433Z,5.50
2023-06-30T01:48:48.005Z,5.90
2023-06-30T01:49:48.022Z,6.40
2023-06-30T01:50:47.988Z,6.20
2023-06-30T01:51:47.965Z,6.30
2023-06-30T01:52:47.965Z,5.90
2023-06-30T01:53:47.940Z,6.30
2023-06-30T01:54:47.919Z,5.90
2023-06-30T01:55:47.954Z,6.20
2023-06-30T01:56:47.947Z,5.80
2023-06-30T01:57:47.904Z,6.00
2023-06-30T01:58:47.885Z,6.00
2023-06-30T01:59:47.903Z,5.60
2023-06-30T02:00:47.855Z,6.80
2023-06-30T02:01:48.228Z,5.60
2023-06-30T02:02:47.907Z,6.50
2023-06-30T02:03:47.851Z,4.80
2023-06-30T02:04:47.817Z,4.80
2023-06-30T02:05:48.040Z,4.30
2023-06-30T02:06:47.801Z,4.90
2023-06-30T02:07:47.790Z,4.70
2023-06-30T02:08:47.808Z,5.30
2023-06-30T02:09:49.203Z,4.60
2023-06-30T02:10:47.760Z,4.30
2023-06-30T02:11:47.735Z,4.40
2023-06-30T02:12:47.726Z,4.60
2023-06-30T02:13:47.740Z,4.40
2023-06-30T02:14:47.709Z,4.90
2023-06-30T02:15:48.070Z,7.00
2023-06-30T02:16:47.772Z,4.60
2023-06-30T02:17:47.686Z,5.20
2023-06-30T02:18:47.651Z,7.10
2023-06-30T02:19:47.707Z,6.90
2023-06-30T02:20:47.633Z,6.10
2023-06-30T02:21:47.637Z,6.70
2023-06-30T02:22:47.612Z,6.60
2023-06-30T02:23:47.617Z,7.60
2023-06-30T02:24:47.628Z,8.20
2023-06-30T02:25:47.917Z,10.80
2023-06-30T02:26:47.579Z,10.30
2023-06-30T02:27:47.572Z,10.90
2023-06-30T02:28:47.561Z,11.30
2023-06-30T02:29:47.564Z,11.40
2023-06-30T02:30:47.541Z,11.30
2023-06-30T02:31:47.712Z,11.70
2023-06-30T02:32:47.609Z,12.60
2023-06-30T02:33:47.508Z,11.10
2023-06-30T02:34:47.537Z,11.70
2023-06-30T02:35:47.903Z,12.00
2023-06-30T02:36:47.475Z,10.10
2023-06-30T02:37:47.459Z,9.50
2023-06-30T02:38:47.452Z,10.40
2023-06-30T02:39:47.434Z,10.10
2023-06-30T02:40:47.425Z,10.40
2023-06-30T02:41:47.412Z,11.30
2023-06-30T02:42:47.398Z,9.90
2023-06-30T02:43:47.418Z,9.70
2023-06-30T02:44:47.377Z,12.70
2023-06-30T02:45:47.756Z,10.40
2023-06-30T02:46:47.372Z,10.30
2023-06-30T02:47:47.385Z,9.90
2023-06-30T02:48:47.332Z,9.80
2023-06-30T02:49:47.327Z,9.40
2023-06-30T02:50:47.444Z,9.00
2023-06-30T02:51:47.310Z,8.50
2023-06-30T02:52:47.306Z,9.40
2023-06-30T02:53:47.285Z,9.30
2023-06-30T02:54:47.271Z,11.00
2023-06-30T02:55:47.544Z,10.40
2023-06-30T02:56:47.254Z,9.80
2023-06-30T02:57:47.242Z,10.60
2023-06-30T02:58:47.229Z,11.60
2023-06-30T02:59:47.237Z,13.40
2023-06-30T03:00:47.363Z,11.80
2023-06-30T03:01:47.248Z,13.20
2023-06-30T03:02:47.313Z,13.70
2023-06-30T03:03:47.245Z,16.80
2023-06-30T03:04:47.185Z,14.50
2023-06-30T03:05:47.503Z,17.30
2023-06-30T03:06:47.144Z,17.30
2023-06-30T03:07:47.126Z,16.40
2023-06-30T03:08:47.391Z,17.10
2023-06-30T03:09:47.111Z,18.70
2023-06-30T03:10:47.097Z,19.60
2023-06-30T03:11:47.106Z,17.70
2023-06-30T03:12:47.074Z,18.50
2023-06-30T03:13:47.061Z,19.30
2023-06-30T03:14:47.062Z,17.90
2023-06-30T03:15:47.323Z,17.10
2023-06-30T03:16:47.096Z,17.80
2023-06-30T03:17:47.096Z,15.70
2023-06-30T03:18:47.026Z,14.90
2023-06-30T03:19:47.000Z,14.60
2023-06-30T03:20:47.002Z,14.40
2023-06-30T03:21:47.004Z,16.60
2023-06-30T03:22:46.982Z,14.70
2023-06-30T03:23:46.959Z,14.20
2023-06-30T03:24:46.951Z,15.00
2023-06-30T03:25:47.281Z,11.90
2023-06-30T03:26:46.927Z,11.70
2023-06-30T03:27:46.943Z,12.30
2023-06-30T03:28:46.927Z,13.00
2023-06-30T03:29:46.881Z,10.90
2023-06-30T03:30:46.996Z,12.40
2023-06-30T03:31:46.878Z,14.00
2023-06-30T03:32:46.943Z,10.50
2023-06-30T03:33:46.839Z,15.30
2023-06-30T03:34:46.863Z,13.70
2023-06-30T03:35:47.140Z,16.00
2023-06-30T03:36:46.815Z,15.30
2023-06-30T03:37:46.796Z,13.70
2023-06-30T03:38:46.804Z,13.40
2023-06-30T03:39:46.780Z,15.90
2023-06-30T03:40:46.783Z,14.80
2023-06-30T03:41:46.772Z,15.60
2023-06-30T03:42:46.755Z,14.70
2023-06-30T03:43:46.730Z,16.90
2023-06-30T03:44:46.735Z,13.20
2023-06-30T03:45:47.078Z,12.20
2023-06-30T03:46:46.742Z,13.30
2023-06-30T03:47:46.719Z,16.90
2023-06-30T03:48:46.706Z,14.70
2023-06-30T03:49:46.703Z,19.10
2023-06-30T03:50:46.667Z,11.70
2023-06-30T03:51:46.647Z,14.30
2023-06-30T03:52:46.670Z,13.10
2023-06-30T03:53:46.713Z,15.60
2023-06-30T03:54:46.643Z,17.50
2023-06-30T03:55:46.962Z,15.00
2023-06-30T03:56:46.590Z,16.30
2023-06-30T03:57:46.569Z,17.80
2023-06-30T03:58:46.581Z,17.20
2023-06-30T03:59:46.555Z,13.90
2023-06-30T04:00:46.547Z,20.10
2023-06-30T04:01:46.530Z,15.60
2023-06-30T04:02:46.587Z,20.50
2023-06-30T04:03:46.733Z,15.10
2023-06-30T04:04:46.524Z,16.80
2023-06-30T04:05:46.823Z,19.70
2023-06-30T04:06:46.478Z,20.10
2023-06-30T04:07:46.564Z,16.00
2023-06-30T04:08:46.458Z,18.20
2023-06-30T04:09:46.452Z,15.00
2023-06-30T04:10:46.439Z,16.60
2023-06-30T04:11:46.426Z,19.90
2023-06-30T04:12:46.426Z,17.60
2023-06-30T04:13:46.409Z,17.90
2023-06-30T04:14:46.396Z,15.70
2023-06-30T04:15:46.684Z,17.70
2023-06-30T04:16:46.506Z,14.70
2023-06-30T04:17:46.396Z,20.00
2023-06-30T04:18:46.351Z,17.70
2023-06-30T04:19:46.337Z,15.90
2023-06-30T04:20:46.316Z,16.70
2023-06-30T04:21:46.320Z,18.00
2023-06-30T04:22:46.301Z,22.80
2023-06-30T04:23:46.298Z,17.20
2023-06-30T04:24:46.306Z,18.00
2023-06-30T04:25:46.570Z,18.80
2023-06-30T04:26:46.327Z,18.50
2023-06-30T04:27:46.265Z,16.50
2023-06-30T04:28:46.248Z,20.00
2023-06-30T04:29:46.290Z,19.00
2023-06-30T04:30:46.227Z,23.10
2023-06-30T04:31:46.398Z,18.30
2023-06-30T04:32:46.266Z,24.50
2023-06-30T04:33:46.315Z,18.80
2023-06-30T04:34:46.172Z,17.10
2023-06-30T04:35:46.536Z,20.20
2023-06-30T04:36:46.161Z,19.30
2023-06-30T04:37:46.142Z,18.90
2023-06-30T04:38:46.157Z,18.70
2023-06-30T04:39:46.134Z,19.60
2023-06-30T04:40:46.108Z,17.10
2023-06-30T04:41:46.119Z,17.80
2023-06-30T04:42:46.094Z,20.60
2023-06-30T04:43:46.084Z,17.70
2023-06-30T04:44:46.062Z,21.30
2023-06-30T04:45:46.221Z,18.50
2023-06-30T04:46:46.100Z,19.40
2023-06-30T04:47:46.083Z,18.50
2023-06-30T04:48:46.031Z,20.90
2023-06-30T04:49:46.009Z,18.70
2023-06-30T04:50:45.992Z,20.50
2023-06-30T04:51:46.036Z,18.80
2023-06-30T04:52:45.988Z,21.50
2023-06-30T04:53:45.980Z,18.10
2023-06-30T04:54:45.968Z,19.90
2023-06-30T04:55:46.089Z,18.60
2023-06-30T04:56:45.926Z,18.20
2023-06-30T04:57:45.919Z,20.40
2023-06-30T04:58:45.917Z,18.70
2023-06-30T04:59:45.938Z,19.80
2023-06-30T05:00:45.883Z,20.90
2023-06-30T05:01:45.886Z,20.30
2023-06-30T05:02:45.882Z,18.30
2023-06-30T05:03:45.903Z,20.60
2023-06-30T05:04:45.840Z,20.80
2023-06-30T05:05:45.993Z,20.40
2023-06-30T05:06:45.822Z,21.40
2023-06-30T05:07:45.815Z,23.60
2023-06-30T05:08:45.803Z,20.30
2023-06-30T05:09:45.782Z,26.80
2023-06-30T05:10:45.767Z,21.00
2023-06-30T05:11:45.775Z,22.10
2023-06-30T05:12:45.753Z,24.30
2023-06-30T05:13:45.755Z,23.40
2023-06-30T05:14:45.729Z,22.10
2023-06-30T05:15:46.041Z,25.20
2023-06-30T05:16:45.777Z,21.20
2023-06-30T05:17:45.722Z,24.90
2023-06-30T05:18:45.769Z,22.60
2023-06-30T05:19:45.680Z,22.20
2023-06-30T05:20:45.685Z,23.50
2023-06-30T05:21:45.656Z,19.40
2023-06-30T05:22:45.658Z,22.60
2023-06-30T05:23:45.644Z,24.20
2023-06-30T05:24:45.626Z,23.40
2023-06-30T05:25:45.924Z,22.70
2023-06-30T05:26:45.599Z,29.00
2023-06-30T05:27:45.612Z,26.30
2023-06-30T05:28:52.768Z,23.20
2023-06-30T05:29:46.583Z,23.40
2023-06-30T05:30:45.568Z,24.60
2023-06-30T05:31:45.670Z,25.60
2023-06-30T05:32:45.599Z,24.40
2023-06-30T05:33:45.523Z,23.70
2023-06-30T05:34:45.509Z,27.80
2023-06-30T05:35:45.779Z,23.70
2023-06-30T05:36:45.495Z,24.30
2023-06-30T05:37:45.491Z,23.70
2023-06-30T05:38:45.464Z,23.60
2023-06-30T05:39:45.476Z,23.60
2023-06-30T05:40:45.443Z,24.40
2023-06-30T05:41:45.452Z,30.70
2023-06-30T05:42:45.438Z,27.10
2023-06-30T05:43:45.424Z,24.60
2023-06-30T05:44:45.481Z,26.70
2023-06-30T05:45:45.706Z,24.70
2023-06-30T05:46:45.459Z,22.30
2023-06-30T05:47:45.435Z,23.10
2023-06-30T05:48:45.367Z,24.60
2023-06-30T05:49:45.350Z,22.80
2023-06-30T05:50:45.343Z,22.80
2023-06-30T05:51:45.340Z,30.20
2023-06-30T05:52:45.310Z,21.10
2023-06-30T05:53:45.318Z,21.20
2023-06-30T05:54:45.296Z,25.30
2023-06-30T05:55:45.520Z,21.80
2023-06-30T05:56:45.278Z,21.20
2023-06-30T05:57:45.258Z,21.70
2023-06-30T05:58:45.242Z,23.80
2023-06-30T05:59:45.236Z,20.20
2023-06-30T06:00:45.285Z,24.10
2023-06-30T06:01:45.217Z,19.80
2023-06-30T06:02:45.342Z,22.20
2023-06-30T06:03:45.470Z,20.00
2023-06-30T06:04:45.402Z,25.50
2023-06-30T06:05:45.666Z,23.20
2023-06-30T06:06:45.151Z,25.30
2023-06-30T06:07:45.282Z,18.30
2023-06-30T06:08:45.176Z,18.10
2023-06-30T06:09:45.137Z,17.60
2023-06-30T06:10:45.244Z,14.30
2023-06-30T06:11:45.138Z,19.70
2023-06-30T06:12:45.116Z,18.10
2023-06-30T06:13:45.088Z,16.30
2023-06-30T06:14:45.072Z,17.30
2023-06-30T06:15:45.290Z,18.30
2023-06-30T06:16:45.096Z,19.90
2023-06-30T06:17:45.083Z,18.40
2023-06-30T06:18:46.498Z,20.70
2023-06-30T06:19:45.041Z,19.40
2023-06-30T06:20:45.020Z,23.40
2023-06-30T06:21:45.015Z,17.50
2023-06-30T06:22:44.988Z,18.30
2023-06-30T06:23:45.120Z,17.20
2023-06-30T06:24:44.968Z,17.10
2023-06-30T06:25:45.607Z,19.60
2023-06-30T06:26:44.951Z,17.50
2023-06-30T06:27:44.937Z,21.30
2023-06-30T06:28:44.931Z,22.80
2023-06-30T06:29:44.935Z,20.90
2023-06-30T06:30:44.931Z,17.30
2023-06-30T06:31:44.891Z,17.70
2023-06-30T06:32:44.917Z,19.80
2023-06-30T06:33:44.889Z,18.10
2023-06-30T06:34:44.857Z,19.50
2023-06-30T06:35:45.173Z,19.70
2023-06-30T06:36:44.844Z,19.40
2023-06-30T06:37:44.839Z,18.50
2023-06-30T06:38:44.806Z,18.60
2023-06-30T06:39:45.749Z,16.40
2023-06-30T06:40:44.801Z,17.00
2023-06-30T06:41:44.782Z,16.20
2023-06-30T06:42:44.784Z,17.40
2023-06-30T06:43:44.760Z,18.20
2023-06-30T06:44:44.743Z,16.10
2023-06-30T06:45:45.154Z,17.10
2023-06-30T06:46:44.834Z,15.10
2023-06-30T06:47:44.748Z,15.10
2023-06-30T06:48:44.729Z,17.00
2023-06-30T06:49:46.874Z,14.20
2023-06-30T06:50:44.676Z,13.90
2023-06-30T06:51:44.697Z,14.80
2023-06-30T06:52:44.661Z,18.00
2023-06-30T06:53:44.650Z,12.80
2023-06-30T06:54:44.631Z,11.50
2023-06-30T06:55:44.933Z,15.20
2023-06-30T06:56:44.634Z,13.50
2023-06-30T06:57:44.602Z,13.00
2023-06-30T06:58:44.591Z,12.60
2023-06-30T06:59:44.619Z,17.60
2023-06-30T07:00:44.575Z,13.60
2023-06-30T07:01:44.942Z,13.80
2023-06-30T07:02:44.676Z,13.20
2023-06-30T07:03:44.604Z,14.10
2023-06-30T07:04:44.535Z,15.90
2023-06-30T07:05:45.061Z,14.90
2023-06-30T07:06:44.502Z,14.30
2023-06-30T07:07:44.613Z,16.50
2023-06-30T07:08:44.488Z,9.90
2023-06-30T07:09:44.541Z,15.50
2023-06-30T07:10:44.468Z,11.70
2023-06-30T07:11:44.468Z,14.00
2023-06-30T07:12:44.432Z,14.30
2023-06-30T07:13:44.441Z,9.30
2023-06-30T07:14:47.237Z,12.80
2023-06-30T07:15:44.734Z,10.30
2023-06-30T07:16:44.499Z,11.70
2023-06-30T07:17:44.500Z,14.40
2023-06-30T07:18:44.407Z,13.20
2023-06-30T07:19:44.383Z,18.40
2023-06-30T07:20:44.341Z,11.10
2023-06-30T07:21:44.329Z,17.80
2023-06-30T07:22:44.321Z,13.10
2023-06-30T07:23:44.327Z,13.40
2023-06-30T07:24:44.438Z,13.20
2023-06-30T07:25:44.724Z,16.70
2023-06-30T07:26:44.270Z,12.90
2023-06-30T07:27:44.314Z,16.80
2023-06-30T07:28:44.262Z,17.50
2023-06-30T07:29:44.258Z,11.50
2023-06-30T07:30:44.244Z,13.20
2023-06-30T07:31:44.304Z,13.80
2023-06-30T07:32:44.254Z,16.30
2023-06-30T07:33:44.426Z,13.10
2023-06-30T07:34:44.196Z,15.50
2023-06-30T07:35:44.639Z,12.10
2023-06-30T07:36:44.157Z,10.40
2023-06-30T07:37:44.198Z,10.10
2023-06-30T07:38:44.164Z,10.90
2023-06-30T07:39:44.131Z,10.30
2023-06-30T07:40:55.074Z,12.30
2023-06-30T07:41:45.144Z,11.40
2023-06-30T07:42:44.090Z,13.10
2023-06-30T07:43:44.103Z,10.60
2023-06-30T07:44:44.077Z,11.60
2023-06-30T07:45:44.493Z,12.10
2023-06-30T07:46:44.046Z,11.50
2023-06-30T07:47:44.240Z,13.40
2023-06-30T07:48:44.126Z,9.80
2023-06-30T07:49:44.019Z,11.70
2023-06-30T07:50:54.679Z,11.40
2023-06-30T07:51:45.021Z,12.00
2023-06-30T07:52:44.260Z,14.50
2023-06-30T07:53:43.981Z,8.50
2023-06-30T07:54:43.960Z,12.10
2023-06-30T07:55:44.238Z,10.90
2023-06-30T07:56:43.954Z,10.50
2023-06-30T07:57:44.199Z,10.60
2023-06-30T07:58:43.921Z,9.00
2023-06-30T07:59:43.918Z,9.10
2023-06-30T08:00:43.899Z,9.40
2023-06-30T08:01:44.188Z,9.70
2023-06-30T08:02:44.316Z,9.70
2023-06-30T08:03:44.093Z,11.00
2023-06-30T08:04:44.004Z,12.00
2023-06-30T08:05:44.431Z,8.80
2023-06-30T08:06:43.890Z,8.40
2023-06-30T08:07:48.958Z,12.50
2023-06-30T08:08:44.807Z,7.30
2023-06-30T08:09:43.799Z,7.50
2023-06-30T08:10:44.946Z,8.60
2023-06-30T08:11:44.037Z,11.00
2023-06-30T08:12:43.800Z,10.40
2023-06-30T08:13:43.813Z,6.20
2023-06-30T08:14:43.749Z,9.40
2023-06-30T08:15:45.906Z,9.50
2023-06-30T08:16:44.174Z,9.50
2023-06-30T08:17:52.811Z,10.20
2023-06-30T08:18:50.600Z,12.30
2023-06-30T08:19:48.232Z,9.30
2023-06-30T08:20:43.910Z,9.40
2023-06-30T08:21:43.712Z,10.40
2023-06-30T08:22:45.016Z,8.80
2023-06-30T08:23:43.649Z,8.00
2023-06-30T08:24:43.638Z,7.40
2023-06-30T08:25:43.998Z,8.50
2023-06-30T08:26:43.631Z,10.90
2023-06-30T08:27:43.764Z,10.00
2023-06-30T08:28:43.591Z,7.70
2023-06-30T08:29:43.579Z,8.60
2023-06-30T08:30:43.640Z,9.60
2023-06-30T08:31:43.563Z,6.90
2023-06-30T08:32:43.545Z,9.50
2023-06-30T08:33:43.560Z,7.80
2023-06-30T08:34:43.540Z,8.70
2023-06-30T08:35:43.833Z,8.80
2023-06-30T08:36:43.499Z,8.50
2023-06-30T08:37:43.496Z,4.60
2023-06-30T08:38:43.486Z,6.40
2023-06-30T08:39:43.551Z,7.50
2023-06-30T08:40:43.475Z,8.30
2023-06-30T08:41:43.471Z,5.90
2023-06-30T08:42:43.477Z,8.90
2023-06-30T08:43:43.435Z,9.50
2023-06-30T08:44:43.439Z,8.30
2023-06-30T08:45:43.778Z,6.70
2023-06-30T08:46:43.419Z,7.40
2023-06-30T08:47:43.565Z,7.40
2023-06-30T08:48:43.389Z,7.60
2023-06-30T08:49:43.392Z,9.10
2023-06-30T08:50:43.371Z,6.50
2023-06-30T08:51:43.343Z,7.40
2023-06-30T08:52:43.347Z,5.40
2023-06-30T08:53:43.341Z,6.50
2023-06-30T08:54:43.338Z,7.60
2023-06-30T08:55:43.605Z,5.10
2023-06-30T08:56:43.299Z,4.20
2023-06-30T08:57:43.295Z,6.50
2023-06-30T08:58:43.335Z,5.90
2023-06-30T08:59:43.272Z,6.50
2023-06-30T09:00:43.281Z,5.10
2023-06-30T09:01:44.898Z,5.40
2023-06-30T09:02:43.346Z,4.50
2023-06-30T09:03:43.281Z,5.60
2023-06-30T09:04:43.295Z,5.30
2023-06-30T09:05:43.319Z,3.40
2023-06-30T09:06:43.183Z,6.80
2023-06-30T09:07:43.340Z,4.80
2023-06-30T09:08:43.193Z,5.00
2023-06-30T09:09:43.171Z,5.00
2023-06-30T09:10:43.138Z,4.80
2023-06-30T09:11:43.211Z,6.30
2023-06-30T09:12:43.137Z,5.90
2023-06-30T09:13:43.138Z,4.40
2023-06-30T09:14:43.110Z,6.30
2023-06-30T09:15:43.572Z,5.70
2023-06-30T09:16:43.092Z,5.00
2023-06-30T09:17:43.114Z,4.10
2023-06-30T09:18:43.057Z,6.30
2023-06-30T09:19:43.059Z,5.20
2023-06-30T09:20:43.054Z,5.60
2023-06-30T09:21:43.045Z,7.40
2023-06-30T09:22:54.736Z,7.90
2023-06-30T09:23:44.032Z,6.30
2023-06-30T09:24:43.010Z,7.60
2023-06-30T09:25:43.109Z,7.30
2023-06-30T09:26:42.983Z,5.20
2023-06-30T09:27:42.995Z,5.50
2023-06-30T09:28:42.961Z,6.50
2023-06-30T09:29:42.956Z,5.30
2023-06-30T09:30:42.934Z,6.20
2023-06-30T09:31:43.019Z,6.30
2023-06-30T09:32:43.079Z,2.80
2023-06-30T09:33:42.905Z,6.60
2023-06-30T09:34:42.905Z,4.70
2023-06-30T09:35:43.385Z,6.40
2023-06-30T09:36:43.104Z,5.60
2023-06-30T09:37:42.871Z,5.80
2023-06-30T09:38:42.854Z,5.80
2023-06-30T09:39:42.863Z,3.50
2023-06-30T09:40:42.843Z,6.20
2023-06-30T09:41:42.823Z,4.00
2023-06-30T09:42:43.345Z,5.70
2023-06-30T09:43:42.807Z,6.40
2023-06-30T09:44:42.780Z,5.50
2023-06-30T09:45:43.072Z,5.30
2023-06-30T09:46:42.854Z,5.10
2023-06-30T09:47:42.825Z,5.00
2023-06-30T09:48:42.742Z,4.30
2023-06-30T09:49:42.790Z,5.30
2023-06-30T09:50:42.863Z,5.70
2023-06-30T09:51:42.717Z,3.50
2023-06-30T09:52:42.702Z,4.40
2023-06-30T09:53:42.745Z,4.30
2023-06-30T09:54:45.004Z,2.80
2023-06-30T09:55:42.811Z,3.70
2023-06-30T09:56:42.655Z,4.00
2023-06-30T09:57:42.660Z,5.10
2023-06-30T09:58:42.659Z,2.80
2023-06-30T09:59:42.660Z,3.60
2023-06-30T10:00:42.675Z,7.00
2023-06-30T10:01:42.657Z,4.80
2023-06-30T10:02:42.665Z,3.00
2023-06-30T10:03:42.680Z,3.20
2023-06-30T10:04:42.595Z,4.30
2023-06-30T10:05:42.595Z,2.80
2023-06-30T10:06:42.553Z,4.90
2023-06-30T10:07:42.718Z,3.70
2023-06-30T10:08:42.685Z,3.20
2023-06-30T10:09:42.540Z,4.20
2023-06-30T10:10:42.535Z,2.50
2023-06-30T10:11:42.518Z,4.50
2023-06-30T10:12:44.277Z,5.40
2023-06-30T10:13:42.514Z,4.30
2023-06-30T10:14:42.472Z,4.10
2023-06-30T10:15:42.574Z,3.90
2023-06-30T10:16:42.453Z,4.40
2023-06-30T10:17:42.641Z,4.00
2023-06-30T10:18:42.461Z,3.30
2023-06-30T10:19:42.438Z,3.60
2023-06-30T10:21:43.395Z,3.80
2023-06-30T10:22:42.412Z,3.70
2023-06-30T10:23:42.478Z,4.40
2023-06-30T10:24:42.369Z,4.10
2023-06-30T10:25:42.442Z,4.10
2023-06-30T10:26:42.353Z,2.90
2023-06-30T10:27:42.359Z,4.40
2023-06-30T10:28:42.336Z,4.40
2023-06-30T10:29:42.324Z,2.70
2023-06-30T10:30:42.314Z,3.30
2023-06-30T10:31:42.362Z,3.70
2023-06-30T10:32:42.353Z,2.90
2023-06-30T10:33:42.329Z,3.00
2023-06-30T10:34:42.280Z,6.10
2023-06-30T10:35:42.314Z,3.90
2023-06-30T10:36:42.258Z,3.10
2023-06-30T10:37:42.271Z,2.80
2023-06-30T10:38:42.232Z,1.50
2023-06-30T10:39:42.218Z,2.60
2023-06-30T10:40:42.214Z,3.90
2023-06-30T10:41:42.213Z,2.70
2023-06-30T10:42:42.206Z,3.10
2023-06-30T10:43:42.192Z,1.60
2023-06-30T10:44:42.182Z,1.90
2023-06-30T10:45:42.290Z,2.70
2023-06-30T10:46:42.246Z,1.80
2023-06-30T10:47:42.150Z,2.90
2023-06-30T10:48:42.124Z,3.70
2023-06-30T10:49:42.130Z,4.40
2023-06-30T10:50:42.154Z,2.20
2023-06-30T10:51:42.121Z,4.70
2023-06-30T10:52:42.093Z,2.60
2023-06-30T10:53:42.077Z,2.20
2023-06-30T10:54:42.138Z,3.40
2023-06-30T10:55:42.079Z,2.20
2023-06-30T10:56:42.082Z,6.00
2023-06-30T10:57:42.055Z,7.10
2023-06-30T10:58:42.074Z,4.20
2023-06-30T10:59:42.024Z,4.20
2023-06-30T11:00:42.031Z,2.90
2023-06-30T11:01:42.000Z,2.20
2023-06-30T11:02:42.113Z,2.20
2023-06-30T11:03:42.106Z,3.70
2023-06-30T11:04:42.169Z,1.60
2023-06-30T11:05:42.062Z,3.90
2023-06-30T11:06:41.964Z,4.50
2023-06-30T11:07:41.980Z,2.80
2023-06-30T11:08:41.938Z,2.60
2023-06-30T11:09:41.925Z,2.20
2023-06-30T11:10:41.927Z,3.80
2023-06-30T11:11:41.899Z,2.50
2023-06-30T11:12:41.885Z,2.00
2023-06-30T11:13:41.879Z,3.40
2023-06-30T11:14:41.891Z,1.80
2023-06-30T11:15:42.013Z,2.40
2023-06-30T11:16:41.857Z,3.10
2023-06-30T11:17:41.916Z,3.90
2023-06-30T11:18:41.938Z,3.10
2023-06-30T11:19:41.853Z,2.10
2023-06-30T11:20:41.822Z,4.30
2023-06-30T11:21:41.807Z,4.60
2023-06-30T11:22:41.791Z,3.40
2023-06-30T11:23:41.834Z,1.80
2023-06-30T11:24:41.776Z,4.20
2023-06-30T11:25:41.764Z,3.20
2023-06-30T11:26:41.748Z,4.00
2023-06-30T11:27:41.750Z,3.30
2023-06-30T11:28:41.744Z,2.10
2023-06-30T11:29:41.772Z,2.90
2023-06-30T11:30:41.728Z,2.80
2023-06-30T11:31:41.705Z,3.90
2023-06-30T11:32:41.764Z,1.60
2023-06-30T11:33:41.695Z,3.00
2023-06-30T11:34:41.665Z,3.20
2023-06-30T11:35:41.673Z,3.20
2023-06-30T11:36:41.654Z,4.20
2023-06-30T11:37:41.662Z,3.10
2023-06-30T11:38:41.664Z,3.50
2023-06-30T11:39:41.625Z,3.20
2023-06-30T11:40:41.625Z,2.90
2023-06-30T11:41:41.603Z,4.00
2023-06-30T11:42:41.652Z,3.90
2023-06-30T11:43:41.582Z,2.50
2023-06-30T11:44:41.571Z,3.20
2023-06-30T11:45:41.628Z,3.50
2023-06-30T11:46:41.569Z,3.10
2023-06-30T11:47:41.739Z,3.60
2023-06-30T11:48:41.538Z,1.90
2023-06-30T11:49:41.521Z,3.20
2023-06-30T11:50:41.510Z,2.50
2023-06-30T11:51:41.515Z,4.10
2023-06-30T11:52:41.500Z,2.30
2023-06-30T11:53:41.498Z,2.20
2023-06-30T11:54:41.466Z,2.50
2023-06-30T11:55:41.515Z,5.80
2023-06-30T11:56:41.471Z,3.80
2023-06-30T11:57:41.446Z,2.40
2023-06-30T11:58:41.429Z,2.50
2023-06-30T11:59:41.449Z,2.60
2023-06-30T12:00:41.407Z,2.00
2023-06-30T12:01:41.424Z,2.30
2023-06-30T12:02:41.454Z,4.20
2023-06-30T12:03:41.450Z,4.10
2023-06-30T12:04:41.418Z,5.20
2023-06-30T12:05:41.449Z,2.20
2023-06-30T12:06:41.387Z,3.70
2023-06-30T12:07:41.404Z,2.50
2023-06-30T12:08:41.343Z,3.60
2023-06-30T12:09:41.332Z,1.80
2023-06-30T12:10:41.338Z,4.70
2023-06-30T12:11:41.326Z,2.00
2023-06-30T12:12:41.308Z,4.10
2023-06-30T12:13:41.314Z,3.10
2023-06-30T12:14:41.297Z,4.40
2023-06-30T12:15:41.300Z,3.30
2023-06-30T12:16:41.276Z,2.60
2023-06-30T12:17:41.267Z,3.80
2023-06-30T12:18:41.265Z,4.10
2023-06-30T12:19:41.243Z,3.60
2023-06-30T12:20:41.251Z,2.60
2023-06-30T12:21:41.209Z,3.00
2023-06-30T12:22:41.197Z,3.20
2023-06-30T12:23:41.204Z,3.00
2023-06-30T12:24:41.209Z,3.20
2023-06-30T12:25:41.178Z,2.40
2023-06-30T12:26:41.160Z,2.30
2023-06-30T12:27:41.147Z,2.50
2023-06-30T12:28:41.137Z,4.70
2023-06-30T12:29:41.166Z,2.90
2023-06-30T12:30:41.117Z,3.20
2023-06-30T12:31:41.193Z,3.70
2023-06-30T12:32:41.111Z,1.90
2023-06-30T12:33:41.275Z,3.80
2023-06-30T12:34:41.133Z,2.90
2023-06-30T12:35:41.093Z,2.70
2023-06-30T12:36:41.056Z,3.00
2023-06-30T12:37:41.054Z,4.80
2023-06-30T12:38:41.117Z,3.10
2023-06-30T12:39:41.028Z,3.10
2023-06-30T12:40:41.056Z,3.90
2023-06-30T12:41:41.013Z,3.80
2023-06-30T12:42:41.052Z,2.90
2023-06-30T12:43:40.994Z,1.80
2023-06-30T12:44:40.981Z,2.30
2023-06-30T12:45:40.996Z,3.00
2023-06-30T12:46:41.016Z,2.80
2023-06-30T12:47:40.995Z,2.70
2023-06-30T12:48:40.949Z,2.30
2023-06-30T12:49:40.958Z,4.60
2023-06-30T12:50:40.946Z,3.50
2023-06-30T12:51:40.938Z,2.60
2023-06-30T12:52:40.898Z,5.10
2023-06-30T12:53:40.881Z,3.50
2023-06-30T12:54:40.881Z,2.10
2023-06-30T12:55:40.876Z,4.60
2023-06-30T12:56:40.856Z,3.50
2023-06-30T12:57:40.855Z,5.10
2023-06-30T12:58:40.832Z,2.30
2023-06-30T12:59:40.831Z,2.70
2023-06-30T13:00:40.994Z,3.80
2023-06-30T13:01:40.851Z,3.90
2023-06-30T13:02:40.865Z,3.70
2023-06-30T13:03:40.886Z,3.00
2023-06-30T13:04:40.772Z,2.70
2023-06-30T13:05:40.771Z,3.50
2023-06-30T13:06:40.773Z,4.90
2023-06-30T13:07:40.991Z,2.90